El Paso, Illinois
Current Conditions -  °F | °C
As of 10:56 PM on Thursday 30 Oct 2014 (Local Time) from KBMI Reporting Station
Broken Clouds Broken Clouds  
Wind Chill: 43°   Ceiling: 7500
Heat Index: 43°   Visibility: 7mi
Dew Point: 42°   Wind: 0mph
Humidity: 96%   Direction: NA
Pressure: 30.08"   Gusts: NA
Location:  40.74°N, 89.02°W
Report Text: KBMI 310356Z AUTO 00000KT 7SM SCT065 BKN075 06/06 A3008 RMK AO2 T00610055 BKN V SCT SLP192
Loading
Personal Weather Stations






























Interactive Weather Map
Tropical Storm Tracking
New forecast layout! Learn more

10-Day Weather Forecast

Advertisements
Track Severe Weather on mobile